Wetter

Diese Seite ist kein Flugwetterbriefingsystem zum Zwecke der meteorologischen Flugvorbereitung gemäß den Durchführungsverordnungen Nr. 2018/1139 (Annex V) & 923/2012 (SERA.2010). Für diesen Zweck nutzen Sie bitte die speziellen Flugwetterbriefingsysteme oder die individuelle Flugwetterberatung.

Unser Platzwetter:

(um das Bild zu aktualisieren oder bei unvollständig geladenem Bild den Reload-Button des Browsers drücken)

METAR: ETNN 181720Z 07006KT 9999 FEW060 BKN240 27/13 Q1020 BLACKBLU+
TAF:
SR / SS: 03:42 / 19:37 UTC (Vettweiss-Soller 18.07.2024)
[Quelle: ADDS]

decodiert:
Metar von: 18.07.24, 19:20 (Lokalzeit)
Flugregeln: VFR
Wind: aus 70° (ONO) mit 11 km/h
Sichtweite: 10 km oder mehr
Wolken: leicht bewölkt bei 6000 ft (1829 m)
                stark bewölkt bei 24000 ft (7315 m)
Temperatur: 27 °C
Taupunkt: 13 °C, relative Luftfeuchtigkeit 42 %
Luftdruck: 1020 hPa

Aktuelle Windrichtung in Relation zu unserer Bahn:

 

Aktuelle Dichtehöhe bei uns am Platz: 1.987 ft.